METAR Data
IDs: Format: Raw Decoded Include TAF

Data at: 0519 UTC 24 Sep 2018

KIND 240454Z 10008KT 10SM FEW040 FEW140 SCT250 18/13 A3010 RMK AO2 SLP187 T01780133 402560117
KIND 240354Z 10007KT 10SM FEW140 BKN250 18/13 A3010 RMK AO2 SLP189 T01830133
KIND 240254Z 12008KT 10SM BKN250 19/13 A3009 RMK AO2 SLP187 T01890128 53009
KIND 240154Z 10008KT 10SM FEW050 BKN250 21/12 A3008 RMK AO2 SLP184 T02060117
KIND 240054Z 09006KT 10SM FEW040 BKN250 22/11 A3007 RMK AO2 SLP179 T02170111
KIND 232354Z 10006KT 10SM FEW040 BKN250 22/11 A3006 RMK AO2 SLP178 T02220111 10256 20222 56001
KIND 232254Z 09009KT 10SM FEW045 BKN250 24/11 A3007 RMK AO2 SLP179 T02390106
KIND 232154Z 07007KT 10SM FEW045 FEW250 26/11 A3006 RMK AO2 SLP175 T02560111
KIND 232054Z 05008KT 10SM FEW040 FEW250 26/11 A3007 RMK AO2 SLP177 T02560111 56015
KIND 231954Z 06009G15KT 10SM FEW040 FEW250 25/11 A3007 RMK AO2 SLP181 T02500106
KIND 231854Z 10010KT 10SM FEW250 24/11 A3009 RMK AO2 SLP184 T02440106
KIND 231754Z 05011KT 10SM FEW250 23/10 A3011 RMK AO2 SLP193 T02330100 10233 20117 58016
KIND 231654Z 08009KT 10SM FEW250 22/10 A3013 RMK AO2 SLP199 T02170100
KIND 231554Z 06009KT 10SM FEW250 20/11 A3015 RMK AO2 SLP207 T02000111
KIND 231454Z 06008KT 10SM FEW250 18/11 A3016 RMK AO2 SLP211 T01780111 53009 $
KIND 231354Z 06008KT 10SM FEW150 SCT250 15/11 A3015 RMK AO2 SLP208 T01500111
KIND 231254Z 04007KT 9SM FEW150 SCT250 12/11 A3014 RMK AO2 SLP205 T01220111
KIND 231154Z 03009KT 10SM FEW150 SCT250 12/11 A3013 RMK AO2 SLP203 T01170106 10139 20117 53003
KIND 231054Z 04007KT 10SM FEW150 BKN250 12/11 A3012 RMK AO2 SLP199 T01170106
KIND 230954Z 04005KT 10SM FEW150 BKN250 12/11 A3012 RMK AO2 SLP199 T01220111
KIND 230854Z 06005KT 10SM FEW150 BKN250 13/11 A3012 RMK AO2 SLP199 T01280111 56007
KIND 230754Z 05006KT 10SM FEW150 BKN250 13/11 A3013 RMK AO2 SLP200 T01280111
KIND 230654Z 06004KT 10SM FEW150 BKN250 14/12 A3014 RMK AO2 SLP204 T01390117
KIND 230554Z 06005KT 10SM FEW150 BKN250 14/12 A3014 RMK AO2 SLP206 T01390117 10161 20133 58011
KIND 230454Z 06005KT 10SM FEW150 BKN250 14/11 A3016 RMK AO2 SLP212 T01390111 401780139
KIND 230354Z 05004KT 10SM FEW150 BKN250 14/11 A3017 RMK AO2 SLP214 T01390111
KIND 230254Z 05007KT 10SM FEW140 SCT220 14/11 A3018 RMK AO2 SLP217 T01440111 50001
KIND 230154Z 03006KT 10SM FEW140 SCT220 14/11 A3019 RMK AO2 SLP222 T01390111
KIND 230054Z 04007KT 10SM FEW150 BKN220 15/11 A3018 RMK AO2 SLP218 T01500111
KIND 222354Z 04006KT 10SM FEW150 BKN220 16/11 A3017 RMK AO2 SLP216 T01610111 10172 20161 56005
KIND 222254Z 04008KT 10SM SCT150 BKN220 17/11 A3018 RMK AO2 SLP218 T01670111
KIND 222154Z 05007KT 10SM SCT150 BKN220 17/11 A3017 RMK AO2 SLP216 T01670106
KIND 222054Z 04007KT 10SM SCT150 BKN220 17/11 A3019 RMK AO2 SLP221 T01720111 56017
KIND 221954Z 04009KT 10SM SCT150 BKN220 16/10 A3019 RMK AO2 PRESFR SLP222 T01610100
KIND 221854Z 03009KT 10SM SCT170 BKN250 17/10 A3021 RMK AO2 SLP229 T01670100
KIND 221754Z 04010KT 10SM SCT130 BKN250 16/09 A3024 RMK AO2 SLP238 T01610094 10161 20144 58007